createdAt,value
2022-09-25T00:02:50.716Z,10.35
2022-09-25T00:07:53.286Z,9.23
2022-09-25T00:12:55.808Z,10.14
2022-09-25T00:17:59.626Z,9.27
2022-09-25T00:23:02.339Z,9.54
2022-09-25T00:28:06.066Z,9.10
2022-09-25T00:33:10.069Z,8.95
2022-09-25T00:38:12.520Z,8.84
2022-09-25T00:43:15.934Z,9.22
2022-09-25T00:48:19.803Z,9.33
2022-09-25T00:53:28.324Z,9.08
2022-09-25T00:58:34.127Z,9.60
2022-09-25T01:03:39.350Z,9.78
2022-09-25T01:08:42.958Z,9.26
2022-09-25T01:13:45.939Z,9.00
2022-09-25T01:19:02.407Z,9.51
2022-09-25T01:24:22.024Z,10.42
2022-09-25T01:29:31.611Z,10.82
2022-09-25T01:34:42.223Z,10.78
2022-09-25T01:39:48.143Z,10.22
2022-09-25T01:44:59.052Z,10.85
2022-09-25T01:50:04.727Z,11.46
2022-09-25T01:55:10.959Z,11.56
2022-09-25T02:00:19.208Z,11.54
2022-09-25T02:05:26.939Z,10.03
2022-09-25T02:10:34.949Z,9.98
2022-09-25T02:15:43.998Z,10.83
2022-09-25T02:20:50.379Z,10.76
2022-09-25T02:26:02.241Z,11.51
2022-09-25T02:31:11.168Z,10.61
2022-09-25T02:36:18.726Z,11.04
2022-09-25T02:41:34.904Z,11.61
2022-09-25T02:46:45.300Z,11.98
2022-09-25T02:51:56.220Z,11.65
2022-09-25T02:57:07.085Z,11.46
2022-09-25T03:02:13.033Z,11.94
2022-09-25T03:07:16.969Z,10.68
2022-09-25T03:12:19.509Z,10.61
2022-09-25T03:17:23.702Z,11.64
2022-09-25T03:22:26.134Z,10.97
2022-09-25T03:27:30.036Z,11.08
2022-09-25T03:32:33.879Z,11.25
2022-09-25T03:37:36.412Z,11.76
2022-09-25T03:42:39.176Z,11.76
2022-09-25T03:47:42.930Z,12.15
2022-09-25T03:52:45.436Z,12.28
2022-09-25T03:57:48.133Z,12.41
2022-09-25T04:02:52.087Z,12.49
2022-09-25T04:07:54.672Z,12.91
2022-09-25T04:12:57.449Z,12.83
2022-09-25T04:18:05.910Z,12.90
2022-09-25T04:23:08.802Z,12.89
2022-09-25T04:28:11.426Z,12.85
2022-09-25T04:33:47.497Z,13.00
2022-09-25T04:38:50.634Z,13.03
2022-09-25T04:43:53.093Z,13.10
2022-09-25T04:48:59.271Z,12.64
2022-09-25T04:54:01.789Z,12.91
2022-09-25T04:59:04.437Z,12.95
2022-09-25T05:04:09.012Z,13.02
2022-09-25T05:09:11.842Z,13.10
2022-09-25T05:14:14.394Z,13.12
2022-09-25T05:19:18.207Z,11.30
2022-09-25T05:24:20.864Z,11.47
2022-09-25T05:29:23.565Z,12.25
2022-09-25T05:34:28.080Z,12.51
2022-09-25T05:39:30.453Z,12.43
2022-09-25T05:44:33.203Z,12.42
2022-09-25T05:49:37.196Z,11.96
2022-09-25T05:54:39.650Z,12.70
2022-09-25T05:59:42.094Z,13.20
2022-09-25T06:04:45.865Z,12.89
2022-09-25T06:09:48.271Z,13.18
2022-09-25T06:14:51.686Z,13.40
2022-09-25T06:19:55.588Z,13.22
2022-09-25T06:24:58.060Z,13.30
2022-09-25T06:30:00.977Z,13.71
2022-09-25T06:35:05.632Z,14.05
2022-09-25T06:40:09.851Z,14.13
2022-09-25T06:45:12.596Z,13.83
2022-09-25T06:50:16.449Z,14.13
2022-09-25T06:55:18.907Z,14.01
2022-09-25T07:00:21.503Z,14.57
2022-09-25T07:05:25.540Z,14.03
2022-09-25T07:10:28.622Z,13.26
2022-09-25T07:15:31.200Z,13.30
2022-09-25T07:20:35.264Z,14.18
2022-09-25T07:25:37.717Z,14.86
2022-09-25T07:30:40.400Z,15.12
2022-09-25T07:35:44.245Z,15.08
2022-09-25T07:40:53.790Z,15.78
2022-09-25T07:45:56.389Z,16.03
2022-09-25T07:51:02.535Z,15.57
2022-09-25T07:56:07.094Z,15.07
2022-09-25T08:01:24.781Z,15.67
2022-09-25T08:06:29.015Z,15.89
2022-09-25T08:11:31.646Z,16.49
2022-09-25T08:16:34.139Z,16.12
2022-09-25T08:21:38.000Z,15.84
2022-09-25T08:26:40.539Z,15.34
2022-09-25T08:31:43.882Z,16.09
2022-09-25T08:36:51.873Z,15.91
2022-09-25T08:41:56.212Z,15.48
2022-09-25T08:47:19.824Z,16.32
2022-09-25T08:52:24.614Z,16.69
2022-09-25T08:57:35.258Z,17.14
2022-09-25T09:02:42.710Z,17.37
2022-09-25T09:07:52.069Z,18.12
2022-09-25T09:12:59.486Z,17.87
2022-09-25T09:18:06.678Z,18.53
2022-09-25T09:23:17.525Z,18.49
2022-09-25T09:28:46.488Z,18.35
2022-09-25T09:33:58.965Z,18.48
2022-09-25T09:39:11.646Z,18.70
2022-09-25T09:44:34.756Z,19.55
2022-09-25T09:49:45.242Z,19.57
2022-09-25T09:54:53.808Z,19.77
2022-09-25T10:00:04.689Z,19.91
2022-09-25T10:05:13.778Z,20.24
2022-09-25T10:10:19.622Z,20.90
2022-09-25T10:15:33.820Z,20.31
2022-09-25T10:20:42.075Z,22.32
2022-09-25T10:25:46.050Z,24.13
2022-09-25T10:30:51.423Z,26.04
2022-09-25T10:35:56.250Z,21.91
2022-09-25T10:41:04.408Z,19.44
2022-09-25T10:46:12.113Z,19.71
2022-09-25T10:51:17.532Z,25.00
2022-09-25T10:56:27.736Z,29.07
2022-09-25T11:01:35.905Z,29.11
2022-09-25T11:06:45.082Z,28.25
2022-09-25T11:11:50.399Z,29.00
2022-09-25T11:16:57.451Z,29.34
2022-09-25T11:22:16.889Z,29.69
2022-09-25T11:27:27.407Z,30.80
2022-09-25T11:32:35.580Z,33.06
2022-09-25T11:37:42.195Z,32.13
2022-09-25T11:42:53.050Z,34.29
2022-09-25T11:48:02.195Z,28.38
2022-09-25T11:53:16.069Z,27.33
2022-09-25T11:58:43.010Z,31.61
2022-09-25T12:04:04.991Z,32.22
2022-09-25T12:09:20.264Z,32.19
2022-09-25T12:14:28.590Z,31.81
2022-09-25T12:19:39.568Z,32.57
2022-09-25T12:24:55.386Z,33.95
2022-09-25T12:30:11.771Z,33.23
2022-09-25T12:35:26.889Z,31.65
2022-09-25T12:40:34.427Z,28.75
2022-09-25T12:45:43.091Z,29.45
2022-09-25T12:50:52.616Z,31.53
2022-09-25T12:56:04.005Z,34.13
2022-09-25T13:01:14.279Z,34.72
2022-09-25T13:06:23.351Z,30.69
2022-09-25T13:11:38.253Z,31.90
2022-09-25T13:16:42.076Z,33.71
2022-09-25T13:21:44.848Z,31.62
2022-09-25T13:26:52.773Z,29.47
2022-09-25T13:32:06.111Z,31.79
2022-09-25T13:37:11.404Z,30.81
2022-09-25T13:42:21.514Z,31.21
2022-09-25T13:47:57.214Z,30.96
2022-09-25T13:53:20.331Z,31.92
2022-09-25T13:58:23.654Z,33.60
2022-09-25T14:03:35.759Z,31.01
2022-09-25T14:08:48.768Z,29.10
2022-09-25T14:13:56.757Z,28.09
2022-09-25T14:19:04.506Z,29.56
2022-09-25T14:24:20.147Z,29.77
2022-09-25T14:29:27.929Z,32.28
2022-09-25T14:34:45.984Z,28.19
2022-09-25T14:39:58.626Z,27.17
2022-09-25T14:45:20.973Z,25.15
2022-09-25T14:50:32.832Z,24.35
2022-09-25T14:55:38.487Z,23.66
2022-09-25T15:00:49.142Z,22.84
2022-09-25T15:05:53.322Z,21.59
2022-09-25T15:11:11.985Z,21.02
2022-09-25T15:16:35.819Z,20.93
2022-09-25T15:21:43.779Z,20.08
2022-09-25T15:26:50.615Z,19.66
2022-09-25T15:31:53.460Z,19.68
2022-09-25T15:37:18.869Z,19.69
2022-09-25T15:42:21.962Z,19.32
2022-09-25T15:47:50.885Z,19.02
2022-09-25T15:52:56.667Z,18.54
2022-09-25T15:58:08.335Z,18.49
2022-09-25T16:03:35.106Z,18.20
2022-09-25T16:08:42.163Z,17.69
2022-09-25T16:13:48.639Z,17.67
2022-09-25T16:18:54.409Z,17.94
2022-09-25T16:24:00.828Z,17.19
2022-09-25T16:29:22.161Z,17.26
2022-09-25T16:34:30.930Z,17.18
2022-09-25T16:39:37.372Z,17.37
2022-09-25T16:44:46.948Z,16.72
2022-09-25T16:49:50.112Z,16.42
2022-09-25T16:54:57.566Z,16.52
2022-09-25T17:00:00.097Z,16.92
2022-09-25T17:05:04.753Z,16.39
2022-09-25T17:10:16.001Z,16.33
2022-09-25T17:15:22.172Z,16.38
2022-09-25T17:20:26.140Z,16.72
2022-09-25T17:25:39.242Z,16.69
2022-09-25T17:30:43.223Z,16.58
2022-09-25T17:35:49.469Z,16.93
2022-09-25T17:40:54.969Z,16.60
2022-09-25T17:45:58.973Z,16.57
2022-09-25T17:51:02.900Z,16.73
2022-09-25T17:56:07.469Z,17.27
2022-09-25T18:01:14.722Z,16.65
2022-09-25T18:06:17.206Z,16.19
2022-09-25T18:11:21.707Z,16.18
2022-09-25T18:16:28.874Z,16.30
2022-09-25T18:21:48.968Z,16.53
2022-09-25T18:26:54.164Z,16.09
2022-09-25T18:31:56.622Z,16.32
2022-09-25T18:36:59.144Z,16.43
2022-09-25T18:42:03.145Z,16.21
2022-09-25T18:47:06.611Z,16.25
2022-09-25T18:52:09.148Z,16.25
2022-09-25T18:57:13.818Z,16.52
2022-09-25T19:02:20.910Z,16.61
2022-09-25T19:07:24.204Z,16.70
2022-09-25T19:12:28.070Z,16.69
2022-09-25T19:17:31.076Z,16.87
2022-09-25T19:22:33.841Z,16.87
2022-09-25T19:27:37.999Z,15.08
2022-09-25T19:32:40.509Z,14.59
2022-09-25T19:37:42.992Z,13.92
2022-09-25T19:42:47.612Z,14.30
2022-09-25T19:47:50.064Z,14.99
2022-09-25T19:52:52.748Z,15.42
2022-09-25T19:57:56.556Z,14.88
2022-09-25T20:02:59.093Z,15.06
2022-09-25T20:08:02.159Z,14.80
2022-09-25T20:13:06.651Z,14.77
2022-09-25T20:18:09.104Z,14.89
2022-09-25T20:23:11.633Z,14.58
2022-09-25T20:28:17.066Z,15.10
2022-09-25T20:33:19.540Z,15.35
2022-09-25T20:38:22.063Z,15.62
2022-09-25T20:43:26.093Z,15.58
2022-09-25T20:48:28.529Z,15.66
2022-09-25T20:53:31.057Z,15.41
2022-09-25T20:58:35.741Z,15.31
2022-09-25T21:03:40.186Z,13.81
2022-09-25T21:08:42.526Z,12.70
2022-09-25T21:13:50.436Z,13.26
2022-09-25T21:18:56.567Z,13.78
2022-09-25T21:23:59.704Z,14.03
2022-09-25T21:29:05.765Z,14.07
2022-09-25T21:34:12.035Z,14.21
2022-09-25T21:39:14.917Z,14.08
2022-09-25T21:44:21.372Z,13.53
2022-09-25T21:49:23.892Z,14.23
2022-09-25T21:54:26.407Z,13.53
2022-09-25T21:59:30.260Z,13.90
2022-09-25T22:04:32.704Z,13.45
2022-09-25T22:09:35.188Z,13.44
2022-09-25T22:14:39.570Z,14.39
2022-09-25T22:19:42.063Z,14.83
2022-09-25T22:24:44.548Z,14.62
2022-09-25T22:29:48.637Z,14.53
2022-09-25T22:34:51.068Z,14.88
2022-09-25T22:39:53.505Z,13.81
2022-09-25T22:44:57.544Z,14.08
2022-09-25T22:50:00.355Z,14.56
2022-09-25T22:55:03.323Z,14.20
2022-09-25T23:00:08.983Z,14.25
2022-09-25T23:05:11.470Z,14.52
2022-09-25T23:10:14.054Z,14.76
2022-09-25T23:15:18.096Z,14.46
2022-09-25T23:20:20.531Z,14.79
2022-09-25T23:25:23.501Z,14.66
2022-09-25T23:30:27.872Z,14.07
2022-09-25T23:35:34.293Z,13.78
2022-09-25T23:40:36.977Z,14.04
2022-09-25T23:45:42.142Z,14.57
2022-09-25T23:50:44.986Z,14.54
2022-09-25T23:55:47.552Z,13.82
